Time;durP1;ratioP1;P1;durP2;ratioP2;P2;SDS_P1;SDS_P2;PMS_P1;PMS_P2;Temp;Humidity;BMP_temperature;BMP_pressure;BME280_temperature;BME280_humidity;BME280_pressure;Samples;Min_cycle;Max_cycle;Signal;HPM_P1;HPM_P2
2022/05/26 00:01:30;;;;;;;17.00;12.40;;;;;;;;;;5036830;28;20200;-49
2022/05/26 00:03:57;;;;;;;15.80;12.02;;;;;;;;;;5036479;28;20663;-49
2022/05/26 00:06:24;;;;;;;14.65;11.95;;;;;;;;;;5036833;28;20290;-49
2022/05/26 00:08:52;;;;;;;15.50;12.73;;;;;;;;;;5037045;28;20623;-48
2022/05/26 00:11:33;;;;;;;21.45;12.25;;;;;;;;;;5036671;28;20227;-50
2022/05/26 00:14:07;;;;;;;19.70;13.02;;;;;;;;;;5036658;28;20212;-48
2022/05/26 00:16:41;;;;;;;15.55;12.68;;;;;;;;;;5035912;28;20267;-49
2022/05/26 00:19:10;;;;;;;22.10;11.80;;;;;;;;;;5036526;28;20258;-49
2022/05/26 00:21:37;;;;;;;17.88;13.25;;;;;;;;;;5036893;28;20627;-48
2022/05/26 00:24:05;;;;;;;18.13;13.57;;;;;;;;;;5036086;28;20216;-50
2022/05/26 00:26:32;;;;;;;21.20;14.52;;;;;;;;;;5036780;28;20205;-48
2022/05/26 00:28:59;;;;;;;19.27;15.40;;;;;;;;;;5036396;28;20201;-50
2022/05/26 00:31:26;;;;;;;19.38;16.15;;;;;;;;;;5036253;28;20274;-49
2022/05/26 00:33:54;;;;;;;24.20;17.13;;;;;;;;;;5035526;28;20580;-50
2022/05/26 00:36:37;;;;;;;22.23;16.77;;;;;;;;;;5036155;28;20208;-49
2022/05/26 00:39:09;;;;;;;22.25;17.77;;;;;;;;;;5035702;28;20200;-50
2022/05/26 00:41:41;;;;;;;22.58;17.38;;;;;;;;;;5035981;28;20516;-48
2022/05/26 00:44:09;;;;;;;22.98;17.17;;;;;;;;;;5036055;28;20200;-49
2022/05/26 00:47:03;;;;;;;25.65;17.80;;;;;;;;;;5036169;28;20300;-48
2022/05/26 00:49:39;;;;;;;25.30;17.77;;;;;;;;;;5035065;28;20216;-48
2022/05/26 00:52:11;;;;;;;27.40;19.17;;;;;;;;;;5035905;28;20275;-48
2022/05/26 00:54:38;;;;;;;26.30;18.90;;;;;;;;;;5034952;28;20205;-49
2022/05/26 00:57:18;;;;;;;22.70;19.02;;;;;;;;;;5035947;28;20232;-48
2022/05/26 00:59:55;;;;;;;25.40;17.67;;;;;;;;;;5035055;28;20211;-48
2022/05/26 01:02:26;;;;;;;24.52;17.98;;;;;;;;;;5034565;28;20204;-51
2022/05/26 01:04:56;;;;;;;22.73;19.48;;;;;;;;;;5035489;28;20240;-51
2022/05/26 01:07:30;;;;;;;26.25;20.35;;;;;;;;;;5035170;28;20193;-49
2022/05/26 01:09:57;;;;;;;26.85;19.85;;;;;;;;;;5034503;28;20188;-48
2022/05/26 01:12:24;;;;;;;30.77;20.52;;;;;;;;;;5035904;28;20615;-49
2022/05/26 01:14:55;;;;;;;27.85;20.73;;;;;;;;;;5035327;28;20283;-49
2022/05/26 01:17:50;;;;;;;26.25;20.42;;;;;;;;;;5034596;28;20232;-49
2022/05/26 01:20:51;;;;;;;28.10;21.45;;;;;;;;;;5034350;28;20507;-50
2022/05/26 01:23:43;;;;;;;26.48;19.83;;;;;;;;;;5035169;28;20220;-48
2022/05/26 01:26:34;;;;;;;24.50;19.98;;;;;;;;;;5034917;28;20287;-48
2022/05/26 01:29:10;;;;;;;25.27;20.10;;;;;;;;;;5035456;28;20189;-49
2022/05/26 01:31:52;;;;;;;21.90;19.60;;;;;;;;;;5035315;28;20218;-48
2022/05/26 01:34:42;;;;;;;24.23;18.70;;;;;;;;;;5034359;28;20274;-49
2022/05/26 01:37:21;;;;;;;22.73;17.50;;;;;;;;;;5035262;28;20216;-49
2022/05/26 01:40:12;;;;;;;22.30;17.17;;;;;;;;;;5035267;28;20201;-48
2022/05/26 01:43:09;;;;;;;21.63;16.58;;;;;;;;;;5034579;28;20659;-49
2022/05/26 01:45:58;;;;;;;25.55;18.48;;;;;;;;;;5035088;28;20208;-48
2022/05/26 01:49:03;;;;;;;19.90;16.17;;;;;;;;;;5035005;28;20239;-49
2022/05/26 01:51:39;;;;;;;20.45;15.68;;;;;;;;;;5034524;28;20216;-50
2022/05/26 01:54:25;;;;;;;20.52;16.20;;;;;;;;;;5033754;28;20200;-48
2022/05/26 01:57:02;;;;;;;21.92;16.05;;;;;;;;;;5033792;28;20252;-48
2022/05/26 01:59:43;;;;;;;18.85;15.40;;;;;;;;;;5033571;28;20204;-48
2022/05/26 02:02:15;;;;;;;19.00;15.93;;;;;;;;;;5033742;28;20200;-48
2022/05/26 02:04:51;;;;;;;18.90;15.95;;;;;;;;;;5033350;28;20603;-49
2022/05/26 02:07:25;;;;;;;18.45;16.48;;;;;;;;;;5033679;28;20200;-49
2022/05/26 02:09:54;;;;;;;21.13;16.08;;;;;;;;;;5015748;28;20211;-51
2022/05/26 02:12:25;;;;;;;18.48;16.17;;;;;;;;;;5012871;28;20602;-49
2022/05/26 02:15:24;;;;;;;18.42;16.55;;;;;;;;;;5014119;28;20228;-48
2022/05/26 02:17:58;;;;;;;18.77;16.13;;;;;;;;;;5013509;28;20228;-50
2022/05/26 02:20:32;;;;;;;18.58;15.82;;;;;;;;;;5013092;28;20208;-48
2022/05/26 02:23:17;;;;;;;19.23;16.38;;;;;;;;;;5014086;28;20194;-50
2022/05/26 02:25:44;;;;;;;22.85;16.17;;;;;;;;;;5014456;28;20528;-52
2022/05/26 02:28:11;;;;;;;19.38;16.60;;;;;;;;;;5014398;28;20205;-49
2022/05/26 02:30:41;;;;;;;21.98;16.95;;;;;;;;;;5014269;28;21037;-50
2022/05/26 02:33:11;;;;;;;22.42;17.92;;;;;;;;;;4997567;28;20589;-50
2022/05/26 02:35:41;;;;;;;21.80;17.40;;;;;;;;;;5013437;28;20205;-48
2022/05/26 02:38:16;;;;;;;28.52;17.35;;;;;;;;;;5014317;28;20233;-49
2022/05/26 02:40:45;;;;;;;23.52;17.98;;;;;;;;;;5014282;28;20205;-50
2022/05/26 02:43:18;;;;;;;22.17;17.58;;;;;;;;;;5014282;28;20202;-48
2022/05/26 02:46:23;;;;;;;21.83;16.55;;;;;;;;;;5013619;28;20214;-51
2022/05/26 02:49:17;;;;;;;21.45;16.15;;;;;;;;;;5014481;28;20217;-49
2022/05/26 02:51:50;;;;;;;26.27;16.38;;;;;;;;;;5014498;28;20213;-49
2022/05/26 02:54:41;;;;;;;18.40;15.88;;;;;;;;;;5013509;28;20204;-48
2022/05/26 02:57:14;;;;;;;19.25;15.68;;;;;;;;;;5013473;28;20209;-54
2022/05/26 03:00:05;;;;;;;20.50;14.70;;;;;;;;;;5014387;28;20520;-53
2022/05/26 03:02:39;;;;;;;19.35;15.00;;;;;;;;;;5016637;28;20279;-52
2022/05/26 03:05:15;;;;;;;19.80;15.05;;;;;;;;;;5016969;28;20237;-48
2022/05/26 03:07:44;;;;;;;18.73;14.57;;;;;;;;;;5018120;28;20209;-49
2022/05/26 03:10:12;;;;;;;18.00;14.15;;;;;;;;;;5017134;28;20534;-48
2022/05/26 03:12:39;;;;;;;16.05;14.07;;;;;;;;;;5017773;28;20204;-48
2022/05/26 03:15:13;;;;;;;17.50;14.48;;;;;;;;;;5018047;28;20340;-49
2022/05/26 03:17:39;;;;;;;17.85;13.95;;;;;;;;;;5017672;28;20686;-49
2022/05/26 03:20:07;;;;;;;15.55;13.13;;;;;;;;;;5017672;28;20592;-48
2022/05/26 03:22:34;;;;;;;16.42;13.60;;;;;;;;;;5016916;28;20206;-49
2022/05/26 03:25:01;;;;;;;15.23;13.63;;;;;;;;;;5017746;28;20205;-48
2022/05/26 03:27:28;;;;;;;16.95;14.65;;;;;;;;;;5010299;28;20670;-48
2022/05/26 03:29:55;;;;;;;18.55;14.20;;;;;;;;;;5016531;28;20237;-49
2022/05/26 03:32:23;;;;;;;16.98;14.60;;;;;;;;;;5016462;28;20241;-48
2022/05/26 03:43:09;;;;;;;19.77;13.35;;;;;;;;;;5015981;28;20243;-49
2022/05/26 03:45:36;;;;;;;18.13;14.63;;;;;;;;;;5015535;28;20233;-55
2022/05/26 03:48:04;;;;;;;16.05;14.30;;;;;;;;;;5016286;28;20222;-49
2022/05/26 03:50:32;;;;;;;21.15;14.32;;;;;;;;;;5016322;28;20236;-48
2022/05/26 03:52:59;;;;;;;17.63;14.50;;;;;;;;;;5015890;28;20603;-50
2022/05/26 03:55:26;;;;;;;19.08;15.02;;;;;;;;;;5016934;28;20251;-55
2022/05/26 03:57:54;;;;;;;20.77;14.77;;;;;;;;;;5020847;28;20244;-49
2022/05/26 04:00:23;;;;;;;16.75;14.02;;;;;;;;;;5029736;28;20232;-48
2022/05/26 04:02:50;;;;;;;17.95;13.38;;;;;;;;;;5016036;28;20229;-52
2022/05/26 04:05:18;;;;;;;15.68;13.45;;;;;;;;;;5027379;28;20569;-48
2022/05/26 04:07:45;;;;;;;15.60;13.35;;;;;;;;;;5035938;28;20258;-49
2022/05/26 04:10:12;;;;;;;16.23;13.27;;;;;;;;;;5036400;28;20243;-49
2022/05/26 04:12:39;;;;;;;14.50;12.98;;;;;;;;;;5036398;28;20205;-50
2022/05/26 04:15:06;;;;;;;13.95;11.90;;;;;;;;;;5036318;28;20300;-48
2022/05/26 04:17:33;;;;;;;15.93;12.48;;;;;;;;;;5036574;28;20270;-50
2022/05/26 04:20:00;;;;;;;12.95;10.73;;;;;;;;;;5015965;28;20229;-48
2022/05/26 04:22:27;;;;;;;14.48;10.70;;;;;;;;;;5015580;28;20567;-49
2022/05/26 04:24:56;;;;;;;12.73;9.18;;;;;;;;;;5016179;28;20229;-51
2022/05/26 04:27:26;;;;;;;9.73;8.73;;;;;;;;;;5013441;28;20240;-51
2022/05/26 04:29:53;;;;;;;11.90;9.20;;;;;;;;;;5015196;28;20233;-51
2022/05/26 04:32:21;;;;;;;11.98;9.20;;;;;;;;;;5015075;28;20233;-47
2022/05/26 04:34:50;;;;;;;12.10;9.15;;;;;;;;;;5008973;28;20230;-50
2022/05/26 04:37:18;;;;;;;9.57;8.43;;;;;;;;;;5005121;28;20229;-50
2022/05/26 04:39:45;;;;;;;13.00;9.32;;;;;;;;;;4995513;28;20261;-49
2022/05/26 04:42:13;;;;;;;12.45;8.60;;;;;;;;;;4995643;28;20226;-53
2022/05/26 04:44:43;;;;;;;13.27;9.60;;;;;;;;;;5012711;28;20226;-48
2022/05/26 04:47:11;;;;;;;11.35;8.30;;;;;;;;;;5014160;28;20236;-51
2022/05/26 04:49:39;;;;;;;11.50;7.88;;;;;;;;;;5014892;28;20229;-47
2022/05/26 04:52:12;;;;;;;9.18;8.15;;;;;;;;;;5014998;28;20312;-47
2022/05/26 04:54:39;;;;;;;9.90;7.68;;;;;;;;;;5015110;28;20229;-49
2022/05/26 04:57:06;;;;;;;8.65;7.57;;;;;;;;;;5015439;28;20229;-53
2022/05/26 04:59:34;;;;;;;9.88;7.43;;;;;;;;;;5015047;28;20241;-52
2022/05/26 05:02:01;;;;;;;9.73;7.53;;;;;;;;;;5015004;28;20226;-50
2022/05/26 05:04:28;;;;;;;12.70;7.72;;;;;;;;;;5014108;28;20241;-48
2022/05/26 05:06:56;;;;;;;9.45;6.90;;;;;;;;;;5015022;28;20264;-49
2022/05/26 05:09:23;;;;;;;10.18;8.40;;;;;;;;;;5014643;28;20241;-49
2022/05/26 05:11:51;;;;;;;20.42;7.70;;;;;;;;;;5014700;28;20225;-50
2022/05/26 05:14:18;;;;;;;8.75;7.28;;;;;;;;;;5014704;28;20225;-54
2022/05/26 05:16:46;;;;;;;12.93;7.28;;;;;;;;;;5009042;28;20320;-61
2022/05/26 05:19:17;;;;;;;9.90;7.70;;;;;;;;;;5012557;28;20233;-56
2022/05/26 05:21:54;;;;;;;8.02;7.18;;;;;;;;;;5015514;28;20256;-57
2022/05/26 05:24:55;;;;;;;9.25;7.00;;;;;;;;;;5014262;28;20181;-59
2022/05/26 05:27:28;;;;;;;8.10;6.97;;;;;;;;;;4936003;29;20286;-59
2022/05/26 05:30:00;;;;;;;9.07;7.30;;;;;;;;;;4935945;29;20543;-59
2022/05/26 05:32:31;;;;;;;9.40;7.35;;;;;;;;;;4936031;29;20343;-57
2022/05/26 05:35:08;;;;;;;10.38;6.90;;;;;;;;;;4935530;29;20196;-59
2022/05/26 05:37:36;;;;;;;10.90;7.20;;;;;;;;;;4935771;29;20215;-59
2022/05/26 05:40:04;;;;;;;8.68;7.07;;;;;;;;;;4935639;29;20295;-59
2022/05/26 05:42:31;;;;;;;9.07;7.03;;;;;;;;;;4935821;29;20270;-57
2022/05/26 05:44:58;;;;;;;8.07;6.82;;;;;;;;;;4935722;29;20226;-59
2022/05/26 05:47:25;;;;;;;8.95;6.75;;;;;;;;;;4935891;29;20211;-59
2022/05/26 05:49:52;;;;;;;9.32;6.78;;;;;;;;;;4936033;29;20212;-58
2022/05/26 05:52:22;;;;;;;6.82;5.95;;;;;;;;;;4935758;29;20514;-59
2022/05/26 05:54:50;;;;;;;9.48;6.25;;;;;;;;;;4935475;29;20208;-59
2022/05/26 05:57:17;;;;;;;9.25;6.82;;;;;;;;;;4935720;29;20298;-59
2022/05/26 05:59:44;;;;;;;7.43;6.38;;;;;;;;;;4935618;29;20239;-59
2022/05/26 06:02:12;;;;;;;7.47;6.70;;;;;;;;;;4950356;28;20202;-58
2022/05/26 06:04:59;;;;;;;8.38;6.55;;;;;;;;;;5014319;28;20245;-59
2022/05/26 06:07:26;;;;;;;9.68;7.25;;;;;;;;;;5014608;28;20209;-58
2022/05/26 06:09:53;;;;;;;10.48;7.40;;;;;;;;;;5014940;28;20272;-59
2022/05/26 06:12:21;;;;;;;10.25;6.93;;;;;;;;;;5015120;28;20292;-59
2022/05/26 06:14:49;;;;;;;10.38;8.00;;;;;;;;;;5014521;28;20201;-59
2022/05/26 06:17:16;;;;;;;9.15;7.68;;;;;;;;;;5014836;28;20218;-59
2022/05/26 06:19:44;;;;;;;10.00;8.98;;;;;;;;;;5014304;28;20308;-60
2022/05/26 06:22:15;;;;;;;10.70;8.77;;;;;;;;;;5015017;28;20209;-59
2022/05/26 06:24:43;;;;;;;10.68;9.18;;;;;;;;;;5014438;28;20217;-58
2022/05/26 06:29:59;;;;;;;9.82;8.60;;;;;;;;;;5014821;28;20186;-59
2022/05/26 06:38:00;;;;;;;11.73;9.27;;;;;;;;;;5010643;28;20292;-60
2022/05/26 06:40:31;;;;;;;10.25;9.25;;;;;;;;;;5006025;28;20226;-60
2022/05/26 06:42:58;;;;;;;13.07;9.75;;;;;;;;;;5009077;28;20316;-60
2022/05/26 06:45:26;;;;;;;10.43;9.43;;;;;;;;;;5003992;28;20205;-60
2022/05/26 06:47:53;;;;;;;10.95;9.85;;;;;;;;;;4998466;28;20209;-59
2022/05/26 06:50:20;;;;;;;12.43;10.68;;;;;;;;;;4998842;28;20401;-60
2022/05/26 06:52:47;;;;;;;12.13;10.10;;;;;;;;;;5000214;28;20263;-60
2022/05/26 06:55:15;;;;;;;12.80;10.30;;;;;;;;;;5007671;28;20193;-60
2022/05/26 06:57:42;;;;;;;13.32;10.80;;;;;;;;;;5006567;28;20199;-60
2022/05/26 07:00:11;;;;;;;11.75;9.95;;;;;;;;;;5006585;28;20275;-60
2022/05/26 07:02:39;;;;;;;15.23;11.63;;;;;;;;;;5007683;28;20193;-60
2022/05/26 07:05:20;;;;;;;16.40;10.77;;;;;;;;;;5007569;28;20598;-59
2022/05/26 07:07:48;;;;;;;13.20;11.13;;;;;;;;;;5007000;28;20198;-60
2022/05/26 07:10:14;;;;;;;13.90;11.45;;;;;;;;;;5005675;28;20205;-60
2022/05/26 07:12:42;;;;;;;12.43;10.63;;;;;;;;;;5007346;28;20268;-60
2022/05/26 07:15:10;;;;;;;13.80;11.82;;;;;;;;;;5007328;28;20210;-60
2022/05/26 07:17:44;;;;;;;12.75;11.35;;;;;;;;;;5007510;28;20678;-60
2022/05/26 07:20:11;;;;;;;14.80;12.82;;;;;;;;;;5006770;28;20218;-59
2022/05/26 07:22:38;;;;;;;14.82;12.13;;;;;;;;;;5007773;28;20205;-54
2022/05/26 07:25:06;;;;;;;16.27;13.02;;;;;;;;;;5006261;28;20297;-55
2022/05/26 07:27:33;;;;;;;15.63;13.38;;;;;;;;;;5005286;28;20206;-57
2022/05/26 07:30:00;;;;;;;14.00;12.57;;;;;;;;;;5002186;28;20285;-59
2022/05/26 07:32:27;;;;;;;17.83;13.43;;;;;;;;;;4997078;28;20325;-60
2022/05/26 07:34:54;;;;;;;13.70;11.75;;;;;;;;;;4997475;28;20205;-60
2022/05/26 07:42:55;;;;;;;14.77;12.82;;;;;;;;;;5004812;28;20225;-59
2022/05/26 07:45:23;;;;;;;13.73;12.30;;;;;;;;;;5006895;28;20212;-60
2022/05/26 07:47:50;;;;;;;13.38;12.07;;;;;;;;;;5004993;28;20202;-60
2022/05/26 07:50:20;;;;;;;13.73;10.25;;;;;;;;;;5005307;28;20208;-60
2022/05/26 07:52:48;;;;;;;13.93;11.98;;;;;;;;;;5005847;28;20191;-60
2022/05/26 07:55:18;;;;;;;13.15;11.77;;;;;;;;;;5005382;28;20200;-57
2022/05/26 07:57:46;;;;;;;13.43;12.02;;;;;;;;;;5005199;28;20202;-57
2022/05/26 08:00:14;;;;;;;14.95;11.70;;;;;;;;;;5005421;28;20299;-60
2022/05/26 08:02:41;;;;;;;14.43;12.98;;;;;;;;;;5004560;28;20202;-60
2022/05/26 08:05:09;;;;;;;12.63;11.32;;;;;;;;;;5006164;28;20220;-60
2022/05/26 08:07:36;;;;;;;12.30;10.95;;;;;;;;;;5006634;28;20261;-60
2022/05/26 08:10:04;;;;;;;12.43;11.13;;;;;;;;;;5006703;28;20263;-60
2022/05/26 08:12:31;;;;;;;11.93;10.77;;;;;;;;;;5005626;28;20198;-60
2022/05/26 08:14:58;;;;;;;14.35;12.85;;;;;;;;;;5004762;28;20224;-57
2022/05/26 08:17:25;;;;;;;14.13;12.70;;;;;;;;;;5007333;28;20595;-57
2022/05/26 08:19:52;;;;;;;14.68;10.35;;;;;;;;;;5015227;28;20399;-60
2022/05/26 08:22:21;;;;;;;14.07;10.52;;;;;;;;;;4999600;28;20209;-60
2022/05/26 08:24:56;;;;;;;11.95;10.55;;;;;;;;;;5000011;28;20260;-60
2022/05/26 08:27:24;;;;;;;13.10;9.65;;;;;;;;;;5016414;28;20533;-60
2022/05/26 08:29:54;;;;;;;11.00;8.50;;;;;;;;;;5016517;28;20543;-60
2022/05/26 08:32:22;;;;;;;9.32;7.80;;;;;;;;;;5015966;28;20544;-59
2022/05/26 08:34:50;;;;;;;10.77;9.13;;;;;;;;;;5015945;28;20216;-57
2022/05/26 08:37:19;;;;;;;10.50;9.60;;;;;;;;;;5016205;28;20206;-57
2022/05/26 08:39:47;;;;;;;8.52;7.25;;;;;;;;;;5015025;28;20218;-59
2022/05/26 08:42:21;;;;;;;9.57;7.95;;;;;;;;;;5004544;28;20335;-59
2022/05/26 08:44:49;;;;;;;8.75;7.85;;;;;;;;;;5005720;28;20202;-60
2022/05/26 08:47:20;;;;;;;7.03;6.32;;;;;;;;;;5001995;28;20198;-57
2022/05/26 08:50:02;;;;;;;10.60;7.65;;;;;;;;;;5004025;28;20196;-57
2022/05/26 08:52:37;;;;;;;9.23;7.20;;;;;;;;;;4989410;28;20194;-57
2022/05/26 08:55:23;;;;;;;7.53;5.57;;;;;;;;;;4996028;28;20205;-57
2022/05/26 08:58:09;;;;;;;11.38;6.25;;;;;;;;;;4995064;28;20190;-57
2022/05/26 09:00:38;;;;;;;8.32;6.43;;;;;;;;;;5026564;28;20228;-56
2022/05/26 09:03:36;;;;;;;6.88;6.18;;;;;;;;;;4995407;28;20213;-56
2022/05/26 09:06:07;;;;;;;6.15;5.30;;;;;;;;;;5008240;28;20251;-57
2022/05/26 09:14:03;;;;;;;6.07;5.20;;;;;;;;;;5015600;28;20572;-57
2022/05/26 09:16:34;;;;;;;6.40;4.82;;;;;;;;;;5015322;28;20193;-57
2022/05/26 09:19:19;;;;;;;5.65;4.68;;;;;;;;;;5015427;28;20213;-58
2022/05/26 09:21:49;;;;;;;4.75;4.25;;;;;;;;;;5014592;28;20201;-58
2022/05/26 09:24:24;;;;;;;7.88;4.25;;;;;;;;;;5015190;28;20682;-57
2022/05/26 09:27:28;;;;;;;6.75;4.10;;;;;;;;;;5015234;28;20616;-59
2022/05/26 09:30:15;;;;;;;4.90;3.30;;;;;;;;;;5013330;28;20208;-57
2022/05/26 09:32:42;;;;;;;5.28;2.95;;;;;;;;;;5015723;28;20204;-59
2022/05/26 09:35:18;;;;;;;7.15;3.83;;;;;;;;;;5046712;28;20201;-58
2022/05/26 09:37:48;;;;;;;5.57;3.45;;;;;;;;;;5015167;28;20204;-59
2022/05/26 09:40:27;;;;;;;4.93;3.15;;;;;;;;;;5014882;28;20316;-60
2022/05/26 09:43:02;;;;;;;9.35;3.50;;;;;;;;;;5014898;28;20533;-59
2022/05/26 09:45:55;;;;;;;7.72;3.20;;;;;;;;;;5014684;28;20248;-60
2022/05/26 09:48:24;;;;;;;3.92;2.80;;;;;;;;;;5014107;28;20193;-57
2022/05/26 09:50:54;;;;;;;3.63;2.92;;;;;;;;;;5014586;28;20189;-57
2022/05/26 09:53:42;;;;;;;3.60;2.28;;;;;;;;;;5015171;28;20216;-57
2022/05/26 09:56:29;;;;;;;6.97;2.55;;;;;;;;;;5014976;28;20193;-57
2022/05/26 09:58:56;;;;;;;3.45;2.67;;;;;;;;;;5014030;28;20280;-57
2022/05/26 10:01:26;;;;;;;5.25;2.17;;;;;;;;;;5014420;28;20642;-57
2022/05/26 10:04:21;;;;;;;2.95;2.08;;;;;;;;;;5014549;28;20211;-57
2022/05/26 10:07:15;;;;;;;6.13;2.30;;;;;;;;;;5014795;28;20534;-57
2022/05/26 10:09:55;;;;;;;3.00;2.40;;;;;;;;;;5014858;28;20198;-57
2022/05/26 10:12:59;;;;;;;10.18;2.53;;;;;;;;;;5018040;28;20189;-57
2022/05/26 10:15:45;;;;;;;2.80;1.92;;;;;;;;;;5018619;28;20607;-57
2022/05/26 10:18:35;;;;;;;6.05;2.40;;;;;;;;;;5019078;28;20185;-57
2022/05/26 10:21:30;;;;;;;3.90;2.08;;;;;;;;;;5017934;28;20589;-56
2022/05/26 10:24:16;;;;;;;3.85;2.35;;;;;;;;;;5018313;28;20232;-57
2022/05/26 10:26:46;;;;;;;2.83;2.30;;;;;;;;;;5012113;28;20223;-59
2022/05/26 10:29:38;;;;;;;5.30;2.47;;;;;;;;;;5040524;28;20205;-57
2022/05/26 10:32:17;;;;;;;3.78;2.13;;;;;;;;;;5039586;28;20292;-56
2022/05/26 10:35:04;;;;;;;3.67;2.30;;;;;;;;;;5029614;28;20193;-57
2022/05/26 10:38:11;;;;;;;4.05;1.80;;;;;;;;;;5006378;28;20229;-59
2022/05/26 10:41:00;;;;;;;3.13;1.98;;;;;;;;;;4996057;28;20226;-57
2022/05/26 10:43:31;;;;;;;3.17;2.00;;;;;;;;;;5010788;28;20194;-57
2022/05/26 10:45:59;;;;;;;4.80;1.90;;;;;;;;;;5016654;28;20635;-58
2022/05/26 10:48:48;;;;;;;3.22;2.30;;;;;;;;;;5016988;28;20197;-57
2022/05/26 10:51:57;;;;;;;4.78;2.45;;;;;;;;;;5017233;28;20198;-57
2022/05/26 10:54:57;;;;;;;3.80;1.98;;;;;;;;;;4959992;28;20208;-57
2022/05/26 10:57:27;;;;;;;6.53;1.90;;;;;;;;;;4974376;28;20207;-57
2022/05/26 11:00:01;;;;;;;3.25;2.17;;;;;;;;;;4976500;28;20227;-57
2022/05/26 11:02:36;;;;;;;4.00;1.98;;;;;;;;;;4976675;28;20191;-57
2022/05/26 11:05:12;;;;;;;5.90;2.05;;;;;;;;;;4960358;28;20236;-58
2022/05/26 11:07:58;;;;;;;7.55;2.10;;;;;;;;;;4973475;28;20191;-57
2022/05/26 11:10:45;;;;;;;2.65;1.55;;;;;;;;;;4959316;28;20344;-58
2022/05/26 11:13:19;;;;;;;1.65;1.30;;;;;;;;;;4968240;28;20249;-58
2022/05/26 11:18:49;;;;;;;1.95;1.48;;;;;;;;;;4974911;28;20203;-57
2022/05/26 11:21:21;;;;;;;2.10;1.27;;;;;;;;;;4959608;28;20649;-58
2022/05/26 11:23:49;;;;;;;5.30;1.48;;;;;;;;;;4975168;28;20685;-58
2022/05/26 11:26:50;;;;;;;2.63;1.42;;;;;;;;;;4976274;28;20207;-58
2022/05/26 11:29:46;;;;;;;5.78;1.30;;;;;;;;;;4986140;28;20198;-58
2022/05/26 11:38:14;;;;;;;3.92;1.30;;;;;;;;;;5016257;28;20181;-58
2022/05/26 11:40:54;;;;;;;3.03;1.40;;;;;;;;;;5015683;28;20726;-58
2022/05/26 11:43:24;;;;;;;5.20;1.10;;;;;;;;;;5005833;28;20197;-58
2022/05/26 11:45:53;;;;;;;1.67;1.20;;;;;;;;;;5006834;28;20194;-58
2022/05/26 11:48:33;;;;;;;4.40;0.98;;;;;;;;;;5038815;28;20198;-58
2022/05/26 11:51:12;;;;;;;3.88;1.30;;;;;;;;;;5001362;28;20228;-58
2022/05/26 11:53:41;;;;;;;1.55;0.90;;;;;;;;;;4995998;28;20214;-58
2022/05/26 11:56:24;;;;;;;2.97;1.08;;;;;;;;;;4996976;28;20213;-58
2022/05/26 11:59:23;;;;;;;4.75;1.23;;;;;;;;;;4996981;28;20518;-58
2022/05/26 12:02:12;;;;;;;5.25;1.88;;;;;;;;;;4996459;28;20675;-58
2022/05/26 12:04:41;;;;;;;1.85;1.13;;;;;;;;;;4998801;28;20229;-58
2022/05/26 12:07:17;;;;;;;1.83;1.10;;;;;;;;;;5041691;28;20209;-58
2022/05/26 12:09:49;;;;;;;5.57;1.13;;;;;;;;;;5015204;28;20243;-58
2022/05/26 12:12:17;;;;;;;3.60;1.10;;;;;;;;;;5015182;28;20185;-58
2022/05/26 12:15:03;;;;;;;5.85;1.02;;;;;;;;;;5015769;28;20244;-58
2022/05/26 12:17:30;;;;;;;2.35;0.98;;;;;;;;;;5015431;28;20189;-58
2022/05/26 12:19:59;;;;;;;4.18;1.00;;;;;;;;;;5015981;28;20291;-58
2022/05/26 12:22:32;;;;;;;1.45;1.08;;;;;;;;;;5047625;28;20292;-58
2022/05/26 12:25:16;;;;;;;2.83;1.10;;;;;;;;;;5015011;28;20634;-58
2022/05/26 12:27:54;;;;;;;3.28;1.00;;;;;;;;;;5015987;28;20231;-58
2022/05/26 12:30:40;;;;;;;8.43;1.23;;;;;;;;;;5015710;28;20202;-58
2022/05/26 12:33:22;;;;;;;3.15;0.90;;;;;;;;;;5015690;28;20208;-58
2022/05/26 12:36:13;;;;;;;2.53;0.80;;;;;;;;;;5014496;28;20209;-58
2022/05/26 12:38:43;;;;;;;6.20;1.40;;;;;;;;;;5047357;28;20517;-58
2022/05/26 12:41:19;;;;;;;4.30;1.35;;;;;;;;;;5015548;28;20217;-58
2022/05/26 12:43:55;;;;;;;1.55;0.95;;;;;;;;;;4996540;28;20209;-59
2022/05/26 12:46:54;;;;;;;4.65;1.02;;;;;;;;;;5027724;28;20194;-58
2022/05/26 12:49:46;;;;;;;3.03;1.00;;;;;;;;;;5020583;28;20651;-58
2022/05/26 12:52:18;;;;;;;4.72;1.02;;;;;;;;;;4995997;28;20228;-58
2022/05/26 12:54:55;;;;;;;5.20;1.10;;;;;;;;;;5014498;28;20268;-58
2022/05/26 12:57:24;;;;;;;2.63;1.02;;;;;;;;;;5012913;28;20232;-58
2022/05/26 12:59:51;;;;;;;9.15;1.27;;;;;;;;;;5009347;28;20221;-57
2022/05/26 13:02:28;;;;;;;4.70;1.42;;;;;;;;;;5010117;28;20217;-56
2022/05/26 13:04:55;;;;;;;4.43;1.30;;;;;;;;;;4993426;28;20298;-58
2022/05/26 13:07:28;;;;;;;5.65;0.93;;;;;;;;;;5012558;28;20256;-58
2022/05/26 13:09:55;;;;;;;5.78;1.35;;;;;;;;;;5007947;28;20293;-58
2022/05/26 13:12:26;;;;;;;3.97;0.90;;;;;;;;;;5006727;28;20767;-59
2022/05/26 13:14:58;;;;;;;1.30;0.90;;;;;;;;;;5004714;28;20253;-59
2022/05/26 13:17:28;;;;;;;4.95;1.10;;;;;;;;;;5003522;28;20615;-58
2022/05/26 13:20:04;;;;;;;2.63;1.10;;;;;;;;;;5001116;28;20236;-58
2022/05/26 13:22:37;;;;;;;1.90;1.10;;;;;;;;;;4999655;28;20686;-58
2022/05/26 13:25:15;;;;;;;3.53;1.10;;;;;;;;;;5000257;28;20232;-58
2022/05/26 13:27:42;;;;;;;4.30;1.23;;;;;;;;;;5009386;28;20573;-58
2022/05/26 13:33:08;;;;;;;4.15;1.10;;;;;;;;;;5008416;28;20229;-58
2022/05/26 13:35:40;;;;;;;4.13;1.20;;;;;;;;;;4993655;28;20287;-58
2022/05/26 13:38:20;;;;;;;2.35;1.10;;;;;;;;;;5004638;28;20707;-58
2022/05/26 13:40:47;;;;;;;4.18;1.27;;;;;;;;;;5008812;28;20263;-58
2022/05/26 13:43:15;;;;;;;4.70;1.02;;;;;;;;;;4997170;28;20229;-58
2022/05/26 13:45:43;;;;;;;3.38;1.17;;;;;;;;;;5003788;28;20222;-58
2022/05/26 13:48:42;;;;;;;5.53;1.20;;;;;;;;;;5000861;28;20319;-58
2022/05/26 13:51:13;;;;;;;3.60;1.20;;;;;;;;;;5000877;28;20292;-58
2022/05/26 13:53:44;;;;;;;2.35;0.90;;;;;;;;;;5002016;28;20309;-58
2022/05/26 13:56:29;;;;;;;11.43;1.20;;;;;;;;;;5011065;28;20229;-58
2022/05/26 13:59:04;;;;;;;1.38;0.88;;;;;;;;;;5028457;28;20240;-58
2022/05/26 14:01:31;;;;;;;2.33;1.00;;;;;;;;;;4994326;28;20241;-58
2022/05/26 14:04:04;;;;;;;9.23;1.70;;;;;;;;;;5010838;28;20236;-58
2022/05/26 14:06:33;;;;;;;3.53;0.98;;;;;;;;;;5023966;28;20319;-58
2022/05/26 14:09:04;;;;;;;1.83;0.90;;;;;;;;;;5017511;28;20229;-58
2022/05/26 14:11:45;;;;;;;2.88;1.02;;;;;;;;;;5013914;28;20616;-58
2022/05/26 14:14:29;;;;;;;7.95;1.17;;;;;;;;;;5014318;28;20225;-58
2022/05/26 14:16:57;;;;;;;6.20;1.33;;;;;;;;;;5013970;28;20320;-58
2022/05/26 14:19:33;;;;;;;2.30;0.85;;;;;;;;;;5014148;28;20213;-56
2022/05/26 14:22:01;;;;;;;3.05;1.23;;;;;;;;;;5020867;28;20572;-58
2022/05/26 14:24:39;;;;;;;4.53;1.38;;;;;;;;;;5015128;28;20260;-57
2022/05/26 14:27:18;;;;;;;15.05;1.75;;;;;;;;;;5030891;28;20220;-58
2022/05/26 14:29:48;;;;;;;2.47;1.25;;;;;;;;;;5033243;28;20252;-57
2022/05/26 14:32:29;;;;;;;5.78;1.08;;;;;;;;;;5033665;28;20328;-57
2022/05/26 14:34:59;;;;;;;2.58;1.00;;;;;;;;;;5033133;28;20280;-58
2022/05/26 14:37:28;;;;;;;3.13;0.90;;;;;;;;;;5027084;28;20193;-57
2022/05/26 14:39:56;;;;;;;2.63;0.85;;;;;;;;;;5033363;28;20662;-58
2022/05/26 14:42:30;;;;;;;5.18;1.00;;;;;;;;;;5021159;28;20221;-58
2022/05/26 14:44:58;;;;;;;5.43;1.58;;;;;;;;;;5022954;28;20209;-58
2022/05/26 14:47:26;;;;;;;4.53;0.80;;;;;;;;;;5024934;28;20209;-58
2022/05/26 14:49:53;;;;;;;8.52;1.17;;;;;;;;;;5014631;28;20205;-58
2022/05/26 14:52:24;;;;;;;7.85;1.10;;;;;;;;;;5014751;28;20271;-58
2022/05/26 14:57:37;;;;;;;8.45;1.17;;;;;;;;;;5028690;28;20551;-57
2022/05/26 15:00:15;;;;;;;3.70;1.02;;;;;;;;;;5037987;28;20211;-57
2022/05/26 15:02:42;;;;;;;4.57;0.70;;;;;;;;;;5037763;28;20227;-58
2022/05/26 15:05:10;;;;;;;5.95;0.82;;;;;;;;;;5037541;28;20274;-58
2022/05/26 15:07:38;;;;;;;3.72;0.93;;;;;;;;;;5037306;28;20278;-56
2022/05/26 15:10:07;;;;;;;3.78;1.60;;;;;;;;;;5037595;28;20631;-57
2022/05/26 15:12:34;;;;;;;5.80;1.10;;;;;;;;;;5036407;28;20702;-58
2022/05/26 15:15:03;;;;;;;29.25;4.10;;;;;;;;;;5029778;28;20206;-58
2022/05/26 15:17:31;;;;;;;11.77;4.15;;;;;;;;;;5019037;28;20275;-58
2022/05/26 15:19:59;;;;;;;5.88;1.60;;;;;;;;;;5017684;28;20213;-59
2022/05/26 15:22:30;;;;;;;7.70;1.38;;;;;;;;;;5030673;28;20635;-59
2022/05/26 15:24:57;;;;;;;5.50;0.90;;;;;;;;;;5018285;28;20225;-58
2022/05/26 15:27:27;;;;;;;1.33;0.85;;;;;;;;;;5017290;28;20213;-58
2022/05/26 15:29:54;;;;;;;5.32;1.00;;;;;;;;;;5012761;28;20201;-58
2022/05/26 15:32:36;;;;;;;5.10;0.80;;;;;;;;;;5000275;28;20221;-59
2022/05/26 15:35:05;;;;;;;2.33;1.23;;;;;;;;;;4997630;28;20237;-58
2022/05/26 15:37:32;;;;;;;4.60;1.20;;;;;;;;;;5000773;28;20205;-58
2022/05/26 15:39:59;;;;;;;3.17;0.90;;;;;;;;;;5016026;28;20209;-58
2022/05/26 15:42:26;;;;;;;6.03;1.02;;;;;;;;;;5016569;28;20225;-58
2022/05/26 15:44:53;;;;;;;4.10;0.90;;;;;;;;;;5017247;28;20209;-58
2022/05/26 15:47:36;;;;;;;6.07;0.90;;;;;;;;;;5017394;28;20232;-58
2022/05/26 15:50:14;;;;;;;3.42;0.98;;;;;;;;;;5047435;28;20198;-57
2022/05/26 15:52:41;;;;;;;3.58;0.90;;;;;;;;;;5016792;28;20207;-58